UAL100 KLAX-KEWR
Flight info
| Callsign | UAL100 |
|---|---|
| Flight time | 4h 23m |
| Altitude | 39000 |
| Route | ORCKA5 LAS J146 DVC HBU MCK OVR DSM EVOTE NELLS KEEHO J584 SLT FQM3 |
| Aircraft | B772/H-SDE2E3FGHIJ5LORVWXY/LB1D1 |
Departure
| Time | 2026-05-07 18:52 |
|---|---|
| Airport | Los Angeles International Airport (KLAX) |
Arrival
| Time | 2026-05-07 23:15 |
|---|---|
| Airport | Newark Liberty International Airport (KEWR) |
| Time | Latitude | Longitude | Altitude | Speed | Heading |
|---|---|---|---|---|---|
| 2026-05-07 18:28 | 33.94099 | -118.41099 | 135 ft | 0 kts | 83° |
| 2026-05-07 18:42 | 33.94098 | -118.41104 | 135 ft | 2 kts | 83° |
| 2026-05-07 18:42 | 33.94096 | -118.41127 | 134 ft | 3 kts | 83° |
| 2026-05-07 18:42 | 33.94094 | -118.41150 | 134 ft | 2 kts | 83° |
| 2026-05-07 18:42 | 33.94092 | -118.41168 | 133 ft | 3 kts | 70° |
| 2026-05-07 18:43 | 33.94085 | -118.41185 | 133 ft | 3 kts | 37° |
| 2026-05-07 18:43 | 33.94073 | -118.41192 | 131 ft | 3 kts | 2° |
| 2026-05-07 18:43 | 33.94053 | -118.41191 | 132 ft | 3 kts | 352° |
| 2026-05-07 18:43 | 33.94042 | -118.41190 | 132 ft | 1 kts | 353° |
| 2026-05-07 18:47 | 33.94047 | -118.41190 | 132 ft | 2 kts | 353° |
| 2026-05-07 18:47 | 33.94070 | -118.41193 | 132 ft | 5 kts | 353° |
| 2026-05-07 18:47 | 33.94125 | -118.41201 | 130 ft | 12 kts | 353° |
| 2026-05-07 18:48 | 33.94236 | -118.41217 | 128 ft | 20 kts | 352° |
| 2026-05-07 18:48 | 33.94396 | -118.41242 | 129 ft | 26 kts | 353° |
| 2026-05-07 18:48 | 33.94576 | -118.41269 | 130 ft | 23 kts | 353° |
| 2026-05-07 18:48 | 33.94727 | -118.41291 | 130 ft | 19 kts | 354° |
| 2026-05-07 18:49 | 33.94803 | -118.41205 | 127 ft | 18 kts | 83° |
| 2026-05-07 18:49 | 33.94819 | -118.41050 | 130 ft | 20 kts | 83° |
| 2026-05-07 18:49 | 33.94836 | -118.40882 | 135 ft | 21 kts | 83° |
| 2026-05-07 18:49 | 33.94856 | -118.40691 | 134 ft | 25 kts | 83° |
| 2026-05-07 18:50 | 33.94878 | -118.40472 | 126 ft | 28 kts | 83° |
| 2026-05-07 18:50 | 33.94903 | -118.40236 | 125 ft | 21 kts | 83° |
| 2026-05-07 18:50 | 33.94916 | -118.40124 | 124 ft | 13 kts | 83° |
| 2026-05-07 18:50 | 33.94980 | -118.40062 | 123 ft | 14 kts | 8° |
| 2026-05-07 18:51 | 33.95020 | -118.40076 | 124 ft | 4 kts | 292° |
| 2026-05-07 18:51 | 33.95022 | -118.40121 | 123 ft | 5 kts | 268° |
| 2026-05-07 18:51 | 33.95022 | -118.40122 | 123 ft | 0 kts | 267° |
| 2026-05-07 18:52 | 33.95019 | -118.40177 | 123 ft | 32 kts | 265° |
| 2026-05-07 18:52 | 33.94961 | -118.40754 | 124 ft | 105 kts | 263° |
| 2026-05-07 18:52 | 33.94843 | -118.41891 | 160 ft | 163 kts | 263° |
| 2026-05-07 18:52 | 33.94679 | -118.43317 | 736 ft | 180 kts | 260° |
| 2026-05-07 18:53 | 33.94497 | -118.44908 | 1246 ft | 208 kts | 262° |
| 2026-05-07 18:53 | 33.94326 | -118.46677 | 1944 ft | 218 kts | 261° |
| 2026-05-07 18:53 | 33.93720 | -118.48366 | 2160 ft | 233 kts | 226° |
| 2026-05-07 18:53 | 33.92293 | -118.49356 | 2445 ft | 251 kts | 191° |
| 2026-05-07 18:54 | 33.90531 | -118.49252 | 2867 ft | 261 kts | 160° |
| 2026-05-07 18:54 | 33.89018 | -118.48056 | 3444 ft | 264 kts | 128° |
| 2026-05-07 18:54 | 33.88294 | -118.46048 | 3993 ft | 266 kts | 93° |
| 2026-05-07 18:54 | 33.88651 | -118.43883 | 4525 ft | 269 kts | 58° |
| 2026-05-07 18:55 | 33.89971 | -118.42310 | 4997 ft | 273 kts | 25° |
| 2026-05-07 18:55 | 33.91755 | -118.41535 | 5434 ft | 274 kts | 19° |
| 2026-05-07 18:55 | 33.93494 | -118.40519 | 5921 ft | 281 kts | 31° |
| 2026-05-07 18:55 | 33.95035 | -118.39119 | 6605 ft | 281 kts | 41° |
| 2026-05-07 18:56 | 33.96403 | -118.37430 | 7250 ft | 282 kts | 49° |
| 2026-05-07 18:56 | 33.97617 | -118.35579 | 7917 ft | 282 kts | 53° |
| 2026-05-07 18:56 | 33.98754 | -118.33659 | 8597 ft | 282 kts | 54° |
| 2026-05-07 18:56 | 33.99866 | -118.31711 | 9281 ft | 282 kts | 55° |
| 2026-05-07 18:57 | 34.00972 | -118.29758 | 9918 ft | 284 kts | 55° |
| 2026-05-07 18:57 | 34.02085 | -118.27793 | 10589 ft | 282 kts | 55° |
| 2026-05-07 18:57 | 34.03218 | -118.25792 | 10945 ft | 300 kts | 55° |
| 2026-05-07 18:57 | 34.04443 | -118.23628 | 11084 ft | 325 kts | 55° |
| 2026-05-07 18:58 | 34.05744 | -118.21331 | 11378 ft | 344 kts | 55° |
| 2026-05-07 18:58 | 34.07099 | -118.18934 | 12194 ft | 348 kts | 55° |
| 2026-05-07 18:58 | 34.08476 | -118.16499 | 12895 ft | 357 kts | 55° |
| 2026-05-07 18:58 | 34.09880 | -118.14016 | 12985 ft | 359 kts | 55° |
| 2026-05-07 18:59 | 34.11291 | -118.11516 | 13032 ft | 363 kts | 55° |
| 2026-05-07 18:59 | 34.12730 | -118.08967 | 13783 ft | 368 kts | 55° |
| 2026-05-07 18:59 | 34.14168 | -118.06418 | 14763 ft | 367 kts | 55° |
| 2026-05-07 18:59 | 34.15605 | -118.03868 | 15672 ft | 368 kts | 55° |
| 2026-05-07 19:00 | 34.17030 | -118.01339 | 16447 ft | 372 kts | 55° |
| 2026-05-07 19:00 | 34.18493 | -117.98740 | 17163 ft | 377 kts | 55° |
| 2026-05-07 19:00 | 34.19975 | -117.96104 | 17901 ft | 381 kts | 55° |
| 2026-05-07 19:00 | 34.21468 | -117.93446 | 18631 ft | 384 kts | 55° |
| 2026-05-07 19:01 | 34.22969 | -117.90772 | 19288 ft | 387 kts | 55° |
| 2026-05-07 19:01 | 34.24489 | -117.88061 | 19883 ft | 392 kts | 55° |
| 2026-05-07 19:01 | 34.26026 | -117.85320 | 20490 ft | 396 kts | 55° |
| 2026-05-07 19:01 | 34.27577 | -117.82553 | 21122 ft | 399 kts | 55° |
| 2026-05-07 19:02 | 34.29137 | -117.79764 | 21695 ft | 403 kts | 55° |
| 2026-05-07 19:02 | 34.30699 | -117.76972 | 22288 ft | 408 kts | 55° |
| 2026-05-07 19:02 | 34.32287 | -117.74129 | 23008 ft | 411 kts | 55° |
| 2026-05-07 19:02 | 34.33899 | -117.71242 | 23572 ft | 416 kts | 55° |
| 2026-05-07 19:03 | 34.35536 | -117.68322 | 24060 ft | 421 kts | 54° |
| 2026-05-07 19:03 | 34.37235 | -117.65418 | 24611 ft | 424 kts | 53° |
| 2026-05-07 19:03 | 34.38971 | -117.62526 | 25149 ft | 426 kts | 53° |
| 2026-05-07 19:03 | 34.40729 | -117.59618 | 25705 ft | 429 kts | 53° |
| 2026-05-07 19:04 | 34.42498 | -117.56687 | 26211 ft | 433 kts | 53° |
| 2026-05-07 19:04 | 34.44277 | -117.53727 | 26690 ft | 436 kts | 53° |
| 2026-05-07 19:04 | 34.46040 | -117.50780 | 27142 ft | 440 kts | 53° |
| 2026-05-07 19:04 | 34.47837 | -117.47767 | 27618 ft | 443 kts | 53° |
| 2026-05-07 19:05 | 34.49647 | -117.44726 | 28069 ft | 446 kts | 53° |
| 2026-05-07 19:05 | 34.51461 | -117.41673 | 28513 ft | 448 kts | 53° |
| 2026-05-07 19:05 | 34.53290 | -117.38591 | 28916 ft | 451 kts | 53° |
| 2026-05-07 19:05 | 34.55128 | -117.35491 | 29292 ft | 455 kts | 53° |
| 2026-05-07 19:06 | 34.56982 | -117.32362 | 29647 ft | 458 kts | 53° |
| 2026-05-07 19:06 | 34.60695 | -117.26087 | 30297 ft | 464 kts | 53° |
| 2026-05-07 19:06 | 34.62580 | -117.22898 | 30576 ft | 466 kts | 53° |
| 2026-05-07 19:07 | 34.64471 | -117.19694 | 30867 ft | 467 kts | 53° |
| 2026-05-07 19:07 | 34.66364 | -117.16487 | 31159 ft | 468 kts | 53° |
| 2026-05-07 19:07 | 34.68258 | -117.13273 | 31414 ft | 469 kts | 53° |
| 2026-05-07 19:07 | 34.70158 | -117.10046 | 31659 ft | 470 kts | 53° |
| 2026-05-07 19:08 | 34.72059 | -117.06816 | 31909 ft | 470 kts | 53° |
| 2026-05-07 19:08 | 34.73960 | -117.03582 | 32259 ft | 469 kts | 53° |
| 2026-05-07 19:08 | 34.75851 | -117.00361 | 32642 ft | 467 kts | 53° |
| 2026-05-07 19:08 | 34.77712 | -116.97189 | 33023 ft | 466 kts | 53° |
| 2026-05-07 19:09 | 34.79588 | -116.93988 | 33390 ft | 464 kts | 53° |
| 2026-05-07 19:09 | 34.81460 | -116.90792 | 33769 ft | 463 kts | 53° |
| 2026-05-07 19:09 | 34.83327 | -116.87602 | 34131 ft | 462 kts | 53° |
| 2026-05-07 19:09 | 34.85186 | -116.84422 | 34408 ft | 461 kts | 53° |
| 2026-05-07 19:10 | 34.87046 | -116.81238 | 34665 ft | 461 kts | 53° |
| 2026-05-07 19:10 | 34.88904 | -116.78054 | 34923 ft | 461 kts | 53° |
| 2026-05-07 19:10 | 34.90762 | -116.74869 | 35192 ft | 460 kts | 53° |
| 2026-05-07 19:10 | 34.92670 | -116.71817 | 35452 ft | 459 kts | 49° |
| 2026-05-07 19:11 | 34.94805 | -116.68932 | 35683 ft | 458 kts | 46° |
| 2026-05-07 19:11 | 34.96982 | -116.66093 | 35903 ft | 458 kts | 46° |
| 2026-05-07 19:11 | 34.99165 | -116.63262 | 36142 ft | 458 kts | 46° |
| 2026-05-07 19:11 | 35.01342 | -116.60431 | 36383 ft | 457 kts | 46° |
| 2026-05-07 19:12 | 35.03511 | -116.57597 | 36631 ft | 456 kts | 46° |
| 2026-05-07 19:12 | 35.05670 | -116.54761 | 36826 ft | 457 kts | 46° |
| 2026-05-07 19:12 | 35.09992 | -116.49058 | 36921 ft | 457 kts | 46° |
| 2026-05-07 19:13 | 35.14269 | -116.43395 | 36927 ft | 455 kts | 46° |
| 2026-05-07 19:13 | 35.18549 | -116.37719 | 36922 ft | 453 kts | 46° |
| 2026-05-07 19:14 | 35.22816 | -116.32051 | 36923 ft | 453 kts | 46° |
| 2026-05-07 19:14 | 35.27078 | -116.26384 | 36910 ft | 452 kts | 46° |
| 2026-05-07 19:15 | 35.31304 | -116.20754 | 36899 ft | 452 kts | 46° |
| 2026-05-07 19:15 | 35.35552 | -116.15083 | 36900 ft | 452 kts | 46° |
| 2026-05-07 19:16 | 35.39801 | -116.09403 | 36910 ft | 452 kts | 46° |
| 2026-05-07 19:16 | 35.44046 | -116.03719 | 36906 ft | 452 kts | 46° |
| 2026-05-07 19:17 | 35.48263 | -115.98063 | 36917 ft | 452 kts | 47° |
| 2026-05-07 19:17 | 35.52506 | -115.92363 | 36927 ft | 452 kts | 47° |
| 2026-05-07 19:18 | 35.56747 | -115.86654 | 36930 ft | 453 kts | 47° |
| 2026-05-07 19:18 | 35.60986 | -115.80938 | 36941 ft | 453 kts | 47° |
| 2026-05-07 19:19 | 35.65191 | -115.75244 | 36942 ft | 453 kts | 47° |
| 2026-05-07 19:19 | 35.69390 | -115.69479 | 36950 ft | 452 kts | 47° |
| 2026-05-07 19:20 | 35.73581 | -115.63704 | 36956 ft | 453 kts | 47° |
| 2026-05-07 19:20 | 35.77775 | -115.57924 | 36951 ft | 452 kts | 47° |
| 2026-05-07 19:21 | 35.81964 | -115.52145 | 36960 ft | 452 kts | 47° |
| 2026-05-07 19:21 | 35.86118 | -115.46406 | 36977 ft | 451 kts | 47° |
| 2026-05-07 19:22 | 35.90293 | -115.40626 | 36978 ft | 451 kts | 47° |
| 2026-05-07 19:22 | 35.94463 | -115.34843 | 36994 ft | 451 kts | 47° |
| 2026-05-07 19:23 | 35.98627 | -115.29058 | 37000 ft | 451 kts | 47° |
| 2026-05-07 19:23 | 36.02793 | -115.23263 | 36986 ft | 451 kts | 47° |
| 2026-05-07 19:24 | 36.06704 | -115.17283 | 36993 ft | 451 kts | 55° |
| 2026-05-07 19:24 | 36.09737 | -115.10482 | 36986 ft | 454 kts | 65° |
| 2026-05-07 19:25 | 36.11993 | -115.03180 | 36979 ft | 455 kts | 68° |
| 2026-05-07 19:25 | 36.14176 | -114.95840 | 36916 ft | 454 kts | 67° |
| 2026-05-07 19:26 | 36.16383 | -114.88568 | 36907 ft | 455 kts | 67° |
| 2026-05-07 19:26 | 36.18613 | -114.81248 | 36927 ft | 454 kts | 67° |
| 2026-05-07 19:27 | 36.20858 | -114.73928 | 36925 ft | 454 kts | 67° |
| 2026-05-07 19:27 | 36.23102 | -114.66613 | 36899 ft | 454 kts | 66° |
| 2026-05-07 19:28 | 36.25342 | -114.59302 | 36900 ft | 454 kts | 67° |
| 2026-05-07 19:28 | 36.27561 | -114.52027 | 36907 ft | 454 kts | 67° |
| 2026-05-07 19:29 | 36.29789 | -114.44698 | 36903 ft | 455 kts | 67° |
| 2026-05-07 19:29 | 36.32015 | -114.37356 | 36898 ft | 455 kts | 67° |
| 2026-05-07 19:30 | 36.34236 | -114.30012 | 36900 ft | 455 kts | 67° |
| 2026-05-07 19:30 | 36.36439 | -114.22711 | 36902 ft | 455 kts | 67° |
| 2026-05-07 19:31 | 36.38651 | -114.15358 | 36898 ft | 455 kts | 67° |
| 2026-05-07 19:31 | 36.40860 | -114.07996 | 36897 ft | 455 kts | 67° |
| 2026-05-07 19:32 | 36.43065 | -114.00630 | 36905 ft | 455 kts | 67° |
| 2026-05-07 19:32 | 36.44893 | -113.94508 | 36910 ft | 455 kts | 67° |
| 2026-05-07 19:33 | 36.47444 | -113.85943 | 36914 ft | 455 kts | 67° |
| 2026-05-07 19:33 | 36.49638 | -113.78557 | 36915 ft | 456 kts | 67° |
| 2026-05-07 19:34 | 36.51457 | -113.72417 | 36924 ft | 456 kts | 67° |
| 2026-05-07 19:34 | 36.53645 | -113.65013 | 36922 ft | 456 kts | 67° |
| 2026-05-07 19:35 | 36.56182 | -113.56401 | 36924 ft | 457 kts | 67° |
| 2026-05-07 19:35 | 36.58362 | -113.48984 | 36933 ft | 457 kts | 67° |
| 2026-05-07 19:36 | 36.60172 | -113.42807 | 36937 ft | 457 kts | 67° |
| 2026-05-07 19:36 | 36.62347 | -113.35372 | 36935 ft | 457 kts | 67° |
| 2026-05-07 19:37 | 36.64861 | -113.26712 | 36942 ft | 458 kts | 68° |
| 2026-05-07 19:37 | 36.66663 | -113.20462 | 36964 ft | 458 kts | 68° |
| 2026-05-07 19:38 | 36.68801 | -113.13031 | 36989 ft | 458 kts | 68° |
| 2026-05-07 19:38 | 36.70949 | -113.05550 | 37010 ft | 459 kts | 68° |
| 2026-05-07 19:39 | 36.73093 | -112.98061 | 37017 ft | 459 kts | 68° |
| 2026-05-07 19:39 | 36.75234 | -112.90566 | 37025 ft | 459 kts | 68° |
| 2026-05-07 19:40 | 36.77371 | -112.83062 | 37015 ft | 460 kts | 68° |
| 2026-05-07 19:40 | 36.79493 | -112.75593 | 36995 ft | 460 kts | 68° |
| 2026-05-07 19:41 | 36.81624 | -112.68068 | 36977 ft | 460 kts | 68° |
| 2026-05-07 19:41 | 36.83752 | -112.60535 | 36952 ft | 460 kts | 68° |
| 2026-05-07 19:42 | 36.85875 | -112.52995 | 36943 ft | 461 kts | 68° |
| 2026-05-07 19:42 | 36.87986 | -112.45484 | 36946 ft | 461 kts | 68° |
| 2026-05-07 19:43 | 36.90109 | -112.37921 | 36949 ft | 462 kts | 68° |
| 2026-05-07 19:43 | 36.92237 | -112.30341 | 36951 ft | 462 kts | 68° |
| 2026-05-07 19:44 | 36.94363 | -112.22753 | 36952 ft | 463 kts | 68° |
| 2026-05-07 19:44 | 36.96471 | -112.15205 | 36957 ft | 463 kts | 68° |
| 2026-05-07 19:45 | 36.98591 | -112.07592 | 36951 ft | 464 kts | 68° |
| 2026-05-07 19:45 | 37.00707 | -111.99968 | 36952 ft | 464 kts | 68° |
| 2026-05-07 19:46 | 37.02821 | -111.92333 | 36948 ft | 465 kts | 68° |
| 2026-05-07 19:46 | 37.04931 | -111.84691 | 36954 ft | 465 kts | 68° |
| 2026-05-07 19:47 | 37.07023 | -111.77092 | 36981 ft | 465 kts | 68° |
| 2026-05-07 19:47 | 37.09125 | -111.69431 | 36980 ft | 466 kts | 68° |
| 2026-05-07 19:48 | 37.11226 | -111.61756 | 37027 ft | 467 kts | 68° |
| 2026-05-07 19:48 | 37.12277 | -111.57908 | 37276 ft | 466 kts | 68° |
| 2026-05-07 19:48 | 37.13321 | -111.54076 | 37647 ft | 463 kts | 68° |
| 2026-05-07 19:49 | 37.14358 | -111.50268 | 37976 ft | 461 kts | 69° |
| 2026-05-07 19:49 | 37.15390 | -111.46473 | 38259 ft | 459 kts | 68° |
| 2026-05-07 19:49 | 37.16404 | -111.42739 | 38479 ft | 459 kts | 68° |
| 2026-05-07 19:49 | 37.17431 | -111.38950 | 38700 ft | 459 kts | 69° |
| 2026-05-07 19:50 | 37.18456 | -111.35164 | 38847 ft | 459 kts | 69° |
| 2026-05-07 19:50 | 37.19482 | -111.31370 | 38949 ft | 460 kts | 69° |
| 2026-05-07 19:50 | 37.21537 | -111.23757 | 39029 ft | 462 kts | 69° |
| 2026-05-07 19:51 | 37.23592 | -111.16113 | 39028 ft | 463 kts | 69° |
| 2026-05-07 19:51 | 37.25650 | -111.08435 | 39035 ft | 465 kts | 69° |
| 2026-05-07 19:52 | 37.27704 | -111.00746 | 39038 ft | 465 kts | 69° |
| 2026-05-07 19:52 | 37.29759 | -110.93034 | 39028 ft | 465 kts | 69° |
| 2026-05-07 19:53 | 37.31806 | -110.85324 | 39032 ft | 465 kts | 69° |
| 2026-05-07 19:53 | 37.33836 | -110.77663 | 39026 ft | 465 kts | 69° |
| 2026-05-07 19:54 | 37.35871 | -110.69954 | 39031 ft | 464 kts | 69° |
| 2026-05-07 19:54 | 37.37899 | -110.62250 | 39035 ft | 464 kts | 69° |
| 2026-05-07 19:55 | 37.39923 | -110.54539 | 39035 ft | 464 kts | 69° |
| 2026-05-07 19:55 | 37.41941 | -110.46827 | 39036 ft | 464 kts | 69° |
| 2026-05-07 19:56 | 37.43941 | -110.39162 | 39042 ft | 464 kts | 69° |
| 2026-05-07 19:56 | 37.45948 | -110.31444 | 39046 ft | 464 kts | 69° |
| 2026-05-07 19:57 | 37.47953 | -110.23713 | 39050 ft | 465 kts | 69° |
| 2026-05-07 19:57 | 37.49954 | -110.15971 | 39052 ft | 465 kts | 69° |
| 2026-05-07 19:58 | 37.51953 | -110.08215 | 39058 ft | 465 kts | 69° |
| 2026-05-07 19:58 | 37.53947 | -110.00456 | 39067 ft | 466 kts | 69° |
| 2026-05-07 19:59 | 37.55927 | -109.92725 | 39071 ft | 467 kts | 69° |
| 2026-05-07 19:59 | 37.57918 | -109.84928 | 39104 ft | 468 kts | 69° |
| 2026-05-07 20:00 | 37.59909 | -109.77107 | 39136 ft | 468 kts | 69° |
| 2026-05-07 20:00 | 37.61896 | -109.69276 | 39169 ft | 469 kts | 69° |
| 2026-05-07 20:01 | 37.63882 | -109.61426 | 39187 ft | 470 kts | 69° |
| 2026-05-07 20:01 | 37.65862 | -109.53572 | 39207 ft | 470 kts | 69° |
| 2026-05-07 20:02 | 37.67829 | -109.45747 | 39205 ft | 471 kts | 69° |
| 2026-05-07 20:02 | 37.69803 | -109.37869 | 39181 ft | 471 kts | 69° |
| 2026-05-07 20:03 | 37.71776 | -109.29973 | 39164 ft | 472 kts | 69° |
| 2026-05-07 20:03 | 37.73744 | -109.22065 | 39134 ft | 472 kts | 69° |
| 2026-05-07 20:04 | 37.75707 | -109.14153 | 39102 ft | 472 kts | 69° |
| 2026-05-07 20:04 | 37.77656 | -109.06276 | 39080 ft | 473 kts | 69° |
| 2026-05-07 20:05 | 37.79612 | -108.98342 | 39087 ft | 473 kts | 69° |
| 2026-05-07 20:05 | 37.81737 | -108.90486 | 39086 ft | 471 kts | 63° |
| 2026-05-07 20:06 | 37.84389 | -108.82911 | 39091 ft | 471 kts | 62° |
| 2026-05-07 20:06 | 37.87087 | -108.75356 | 39091 ft | 472 kts | 62° |
| 2026-05-07 20:07 | 37.89761 | -108.67764 | 39094 ft | 473 kts | 63° |
| 2026-05-07 20:07 | 37.92415 | -108.60141 | 39095 ft | 473 kts | 63° |
| 2026-05-07 20:08 | 37.95046 | -108.52547 | 39099 ft | 474 kts | 63° |
| 2026-05-07 20:08 | 37.97692 | -108.44891 | 39108 ft | 475 kts | 63° |
| 2026-05-07 20:09 | 38.00337 | -108.37223 | 39106 ft | 475 kts | 63° |
| 2026-05-07 20:10 | 38.04303 | -108.25686 | 39165 ft | 476 kts | 63° |
| 2026-05-07 20:10 | 38.06945 | -108.17978 | 39199 ft | 477 kts | 63° |
| 2026-05-07 20:11 | 38.09569 | -108.10305 | 39221 ft | 477 kts | 63° |
| 2026-05-07 20:11 | 38.12205 | -108.02571 | 39233 ft | 477 kts | 63° |
| 2026-05-07 20:12 | 38.14840 | -107.94822 | 39222 ft | 478 kts | 63° |
| 2026-05-07 20:12 | 38.17468 | -107.87072 | 39205 ft | 478 kts | 63° |
| 2026-05-07 20:13 | 38.20096 | -107.79305 | 39200 ft | 478 kts | 63° |
| 2026-05-07 20:13 | 38.22702 | -107.71577 | 39169 ft | 479 kts | 63° |
| 2026-05-07 20:14 | 38.25324 | -107.63785 | 39150 ft | 480 kts | 63° |
| 2026-05-07 20:14 | 38.27943 | -107.55974 | 39154 ft | 480 kts | 63° |
| 2026-05-07 20:15 | 38.30561 | -107.48153 | 39159 ft | 481 kts | 63° |
| 2026-05-07 20:15 | 38.33179 | -107.40306 | 39168 ft | 482 kts | 63° |
| 2026-05-07 20:16 | 38.35796 | -107.32443 | 39168 ft | 482 kts | 63° |
| 2026-05-07 20:16 | 38.38411 | -107.24564 | 39175 ft | 483 kts | 64° |
| 2026-05-07 20:17 | 38.41023 | -107.16670 | 39178 ft | 483 kts | 63° |
| 2026-05-07 20:17 | 38.43610 | -107.08833 | 39200 ft | 483 kts | 63° |
| 2026-05-07 20:18 | 38.46196 | -107.00906 | 39207 ft | 484 kts | 64° |
| 2026-05-07 20:18 | 38.48656 | -106.92886 | 39205 ft | 486 kts | 65° |
| 2026-05-07 20:19 | 38.51082 | -106.84823 | 39206 ft | 487 kts | 65° |
| 2026-05-07 20:19 | 38.53517 | -106.76758 | 39197 ft | 487 kts | 65° |
| 2026-05-07 20:20 | 38.55979 | -106.68625 | 39186 ft | 488 kts | 65° |
| 2026-05-07 20:20 | 38.58415 | -106.60572 | 39166 ft | 490 kts | 65° |
| 2026-05-07 20:21 | 38.60862 | -106.52457 | 39140 ft | 491 kts | 65° |
| 2026-05-07 20:21 | 38.63319 | -106.44286 | 39152 ft | 492 kts | 65° |
| 2026-05-07 20:22 | 38.65769 | -106.36105 | 39157 ft | 493 kts | 65° |
| 2026-05-07 20:22 | 38.68221 | -106.27897 | 39173 ft | 495 kts | 65° |
| 2026-05-07 20:23 | 38.70660 | -106.19706 | 39168 ft | 496 kts | 65° |
| 2026-05-07 20:23 | 38.73113 | -106.11441 | 39176 ft | 496 kts | 65° |
| 2026-05-07 20:24 | 38.75559 | -106.03175 | 39189 ft | 496 kts | 65° |
| 2026-05-07 20:24 | 38.77998 | -105.94910 | 39155 ft | 496 kts | 65° |
| 2026-05-07 20:25 | 38.80434 | -105.86630 | 39104 ft | 497 kts | 65° |
| 2026-05-07 20:25 | 38.82865 | -105.78344 | 39048 ft | 497 kts | 65° |
| 2026-05-07 20:26 | 38.85277 | -105.70094 | 38973 ft | 497 kts | 65° |
| 2026-05-07 20:26 | 38.87700 | -105.61781 | 38927 ft | 498 kts | 65° |
| 2026-05-07 20:27 | 38.90122 | -105.53445 | 38915 ft | 499 kts | 65° |
| 2026-05-07 20:27 | 38.92540 | -105.45095 | 38919 ft | 500 kts | 65° |
| 2026-05-07 20:28 | 38.94960 | -105.36713 | 38929 ft | 501 kts | 65° |
| 2026-05-07 20:28 | 38.97367 | -105.28352 | 38951 ft | 503 kts | 65° |
| 2026-05-07 20:29 | 38.99794 | -105.19893 | 39008 ft | 505 kts | 65° |
| 2026-05-07 20:29 | 39.02224 | -105.11400 | 39037 ft | 508 kts | 65° |
| 2026-05-07 20:30 | 39.04657 | -105.02863 | 39067 ft | 509 kts | 65° |
| 2026-05-07 20:30 | 39.07090 | -104.94297 | 39084 ft | 509 kts | 66° |
| 2026-05-07 20:31 | 39.09513 | -104.85741 | 39091 ft | 509 kts | 66° |
| 2026-05-07 20:31 | 39.11934 | -104.77163 | 39071 ft | 510 kts | 66° |
| 2026-05-07 20:32 | 39.14349 | -104.68580 | 39049 ft | 510 kts | 66° |
| 2026-05-07 20:32 | 39.16742 | -104.60045 | 39078 ft | 510 kts | 66° |
| 2026-05-07 20:33 | 39.19147 | -104.51441 | 39053 ft | 510 kts | 66° |
| 2026-05-07 20:33 | 39.21541 | -104.42849 | 39031 ft | 510 kts | 66° |
| 2026-05-07 20:34 | 39.23930 | -104.34244 | 39006 ft | 509 kts | 66° |
| 2026-05-07 20:34 | 39.26311 | -104.25640 | 38998 ft | 509 kts | 67° |
| 2026-05-07 20:35 | 39.28673 | -104.17079 | 38989 ft | 510 kts | 67° |
| 2026-05-07 20:35 | 39.31048 | -104.08440 | 38990 ft | 510 kts | 67° |
| 2026-05-07 20:36 | 39.33416 | -103.99796 | 39000 ft | 511 kts | 67° |
| 2026-05-07 20:36 | 39.35781 | -103.91134 | 39014 ft | 512 kts | 67° |
| 2026-05-07 20:37 | 39.38127 | -103.82512 | 39023 ft | 512 kts | 67° |
| 2026-05-07 20:37 | 39.40486 | -103.73814 | 39026 ft | 513 kts | 67° |
| 2026-05-07 20:38 | 39.42844 | -103.65089 | 39020 ft | 514 kts | 68° |
| 2026-05-07 20:38 | 39.45198 | -103.56350 | 39010 ft | 515 kts | 68° |
| 2026-05-07 20:39 | 39.47547 | -103.47599 | 39001 ft | 515 kts | 68° |
| 2026-05-07 20:39 | 39.49876 | -103.38889 | 38982 ft | 516 kts | 68° |
| 2026-05-07 20:40 | 39.52220 | -103.30096 | 38966 ft | 517 kts | 68° |
| 2026-05-07 20:40 | 39.54560 | -103.21287 | 38969 ft | 518 kts | 68° |
| 2026-05-07 20:41 | 39.56898 | -103.12453 | 38968 ft | 519 kts | 68° |
| 2026-05-07 20:41 | 39.59217 | -103.03660 | 38966 ft | 519 kts | 68° |
| 2026-05-07 20:42 | 39.61548 | -102.94790 | 38962 ft | 520 kts | 68° |
| 2026-05-07 20:42 | 39.63878 | -102.85895 | 38967 ft | 521 kts | 68° |
| 2026-05-07 20:43 | 39.66203 | -102.76981 | 38959 ft | 522 kts | 68° |
| 2026-05-07 20:43 | 39.68524 | -102.68057 | 38962 ft | 522 kts | 68° |
| 2026-05-07 20:44 | 39.70826 | -102.59169 | 38954 ft | 523 kts | 68° |
| 2026-05-07 20:44 | 39.73140 | -102.50206 | 38952 ft | 524 kts | 68° |
| 2026-05-07 20:45 | 39.75450 | -102.41222 | 38955 ft | 524 kts | 68° |
| 2026-05-07 20:45 | 39.77757 | -102.32221 | 38949 ft | 525 kts | 68° |
| 2026-05-07 20:46 | 39.80042 | -102.23269 | 38941 ft | 526 kts | 68° |
| 2026-05-07 20:46 | 39.82340 | -102.14234 | 38947 ft | 526 kts | 68° |
| 2026-05-07 20:47 | 39.84635 | -102.05178 | 38948 ft | 527 kts | 68° |
| 2026-05-07 20:47 | 39.86925 | -101.96108 | 38945 ft | 528 kts | 69° |
| 2026-05-07 20:48 | 39.89193 | -101.87088 | 38951 ft | 528 kts | 69° |
| 2026-05-07 20:48 | 39.91473 | -101.77990 | 38945 ft | 529 kts | 69° |
| 2026-05-07 20:49 | 39.93751 | -101.68864 | 38937 ft | 530 kts | 69° |
| 2026-05-07 20:49 | 39.96022 | -101.59731 | 38930 ft | 530 kts | 69° |
| 2026-05-07 20:50 | 39.98286 | -101.50591 | 38914 ft | 531 kts | 69° |
| 2026-05-07 20:50 | 40.00533 | -101.41483 | 38907 ft | 531 kts | 69° |
| 2026-05-07 20:51 | 40.02788 | -101.32311 | 38923 ft | 531 kts | 69° |
| 2026-05-07 20:51 | 40.05037 | -101.23126 | 38932 ft | 532 kts | 69° |
| 2026-05-07 20:52 | 40.07282 | -101.13921 | 38940 ft | 532 kts | 69° |
| 2026-05-07 20:52 | 40.09504 | -101.04776 | 38925 ft | 532 kts | 69° |
| 2026-05-07 20:53 | 40.11736 | -100.95556 | 38924 ft | 532 kts | 69° |
| 2026-05-07 20:53 | 40.13961 | -100.86324 | 38915 ft | 533 kts | 69° |
| 2026-05-07 20:54 | 40.16173 | -100.77112 | 38921 ft | 533 kts | 69° |
| 2026-05-07 20:54 | 40.18383 | -100.67868 | 38931 ft | 533 kts | 69° |
| 2026-05-07 20:55 | 40.20591 | -100.58601 | 38930 ft | 533 kts | 70° |
| 2026-05-07 20:55 | 40.22695 | -100.49291 | 38934 ft | 534 kts | 71° |
| 2026-05-07 20:56 | 40.24716 | -100.40010 | 38919 ft | 534 kts | 71° |
| 2026-05-07 20:56 | 40.26748 | -100.30668 | 38901 ft | 534 kts | 71° |
| 2026-05-07 20:57 | 40.28790 | -100.21321 | 38903 ft | 534 kts | 71° |
| 2026-05-07 20:57 | 40.30832 | -100.11965 | 38901 ft | 534 kts | 71° |
| 2026-05-07 20:58 | 40.32863 | -100.02612 | 38898 ft | 534 kts | 71° |
| 2026-05-07 20:58 | 40.34874 | -99.93315 | 38895 ft | 534 kts | 71° |
| 2026-05-07 20:59 | 40.36890 | -99.83944 | 38893 ft | 534 kts | 71° |
| 2026-05-07 20:59 | 40.38898 | -99.74572 | 38892 ft | 534 kts | 71° |
| 2026-05-07 21:00 | 40.40898 | -99.65196 | 38898 ft | 534 kts | 71° |
| 2026-05-07 21:00 | 40.42876 | -99.55882 | 38905 ft | 533 kts | 71° |
| 2026-05-07 21:01 | 40.44860 | -99.46502 | 38902 ft | 533 kts | 71° |
| 2026-05-07 21:01 | 40.46837 | -99.37113 | 38910 ft | 533 kts | 72° |
| 2026-05-07 21:02 | 40.48790 | -99.27794 | 38915 ft | 533 kts | 72° |
| 2026-05-07 21:02 | 40.50750 | -99.18401 | 38914 ft | 533 kts | 72° |
| 2026-05-07 21:03 | 40.52702 | -99.09006 | 38906 ft | 533 kts | 72° |
| 2026-05-07 21:03 | 40.54646 | -98.99604 | 38904 ft | 533 kts | 72° |
| 2026-05-07 21:04 | 40.56582 | -98.90202 | 38904 ft | 533 kts | 72° |
| 2026-05-07 21:04 | 40.58497 | -98.80859 | 38904 ft | 533 kts | 72° |
| 2026-05-07 21:05 | 40.60418 | -98.71443 | 38899 ft | 533 kts | 72° |
| 2026-05-07 21:05 | 40.62331 | -98.62026 | 38903 ft | 533 kts | 72° |
| 2026-05-07 21:06 | 40.64236 | -98.52606 | 38900 ft | 533 kts | 72° |
| 2026-05-07 21:06 | 40.66134 | -98.43172 | 38899 ft | 533 kts | 72° |
| 2026-05-07 21:07 | 40.68011 | -98.33805 | 38900 ft | 532 kts | 72° |
| 2026-05-07 21:07 | 40.69891 | -98.24376 | 38895 ft | 532 kts | 72° |
| 2026-05-07 21:08 | 40.71763 | -98.14939 | 38901 ft | 532 kts | 73° |
| 2026-05-07 21:08 | 40.73628 | -98.05502 | 38902 ft | 532 kts | 73° |
| 2026-05-07 21:09 | 40.75471 | -97.96129 | 38907 ft | 532 kts | 73° |
| 2026-05-07 21:09 | 40.77318 | -97.86691 | 38905 ft | 532 kts | 73° |
| 2026-05-07 21:10 | 40.79159 | -97.77240 | 38897 ft | 532 kts | 73° |
| 2026-05-07 21:10 | 40.80993 | -97.67783 | 38900 ft | 532 kts | 73° |
| 2026-05-07 21:11 | 40.82818 | -97.58321 | 38900 ft | 532 kts | 73° |
| 2026-05-07 21:11 | 40.85532 | -97.44170 | 38900 ft | 533 kts | 73° |
| 2026-05-07 21:12 | 40.87340 | -97.34687 | 38893 ft | 533 kts | 73° |
| 2026-05-07 21:12 | 40.89144 | -97.25177 | 38890 ft | 533 kts | 73° |
| 2026-05-07 21:13 | 40.90940 | -97.15665 | 38892 ft | 534 kts | 73° |
| 2026-05-07 21:13 | 40.92717 | -97.06205 | 38886 ft | 534 kts | 73° |
| 2026-05-07 21:14 | 40.94500 | -96.96665 | 38884 ft | 535 kts | 73° |
| 2026-05-07 21:14 | 40.96278 | -96.87109 | 38895 ft | 535 kts | 73° |
| 2026-05-07 21:15 | 40.98048 | -96.77548 | 38891 ft | 535 kts | 74° |
| 2026-05-07 21:15 | 40.99801 | -96.68030 | 38885 ft | 536 kts | 74° |
| 2026-05-07 21:16 | 41.01557 | -96.58446 | 38877 ft | 536 kts | 74° |
| 2026-05-07 21:16 | 41.03307 | -96.48846 | 38878 ft | 536 kts | 74° |
| 2026-05-07 21:17 | 41.05049 | -96.39242 | 38879 ft | 536 kts | 74° |
| 2026-05-07 21:17 | 41.06784 | -96.29627 | 38878 ft | 536 kts | 74° |
| 2026-05-07 21:18 | 41.08499 | -96.20075 | 38877 ft | 537 kts | 74° |
| 2026-05-07 21:18 | 41.10220 | -96.10443 | 38883 ft | 537 kts | 74° |
| 2026-05-07 21:19 | 41.11932 | -96.00809 | 38861 ft | 537 kts | 74° |
| 2026-05-07 21:19 | 41.13349 | -95.92790 | 38861 ft | 537 kts | 74° |
| 2026-05-07 21:20 | 41.15048 | -95.83140 | 38862 ft | 537 kts | 74° |
| 2026-05-07 21:20 | 41.17007 | -95.71910 | 38868 ft | 538 kts | 75° |
| 2026-05-07 21:21 | 41.18426 | -95.62152 | 38859 ft | 539 kts | 78° |
| 2026-05-07 21:21 | 41.19486 | -95.54004 | 38859 ft | 539 kts | 78° |
| 2026-05-07 21:22 | 41.20774 | -95.44196 | 38865 ft | 539 kts | 78° |
| 2026-05-07 21:22 | 41.22096 | -95.34401 | 38865 ft | 539 kts | 77° |
| 2026-05-07 21:23 | 41.23429 | -95.24597 | 38869 ft | 540 kts | 77° |
| 2026-05-07 21:23 | 41.24744 | -95.14845 | 38861 ft | 540 kts | 78° |
| 2026-05-07 21:24 | 41.26057 | -95.05023 | 38856 ft | 540 kts | 78° |
| 2026-05-07 21:24 | 41.27361 | -94.95182 | 38858 ft | 541 kts | 78° |
| 2026-05-07 21:25 | 41.28658 | -94.85332 | 38864 ft | 541 kts | 78° |
| 2026-05-07 21:25 | 41.29949 | -94.75465 | 38862 ft | 542 kts | 78° |
| 2026-05-07 21:26 | 41.31222 | -94.65665 | 38871 ft | 542 kts | 78° |
| 2026-05-07 21:26 | 41.32496 | -94.55784 | 38889 ft | 543 kts | 78° |
| 2026-05-07 21:27 | 41.33765 | -94.45878 | 38878 ft | 543 kts | 78° |
| 2026-05-07 21:27 | 41.35026 | -94.35966 | 38876 ft | 543 kts | 78° |
| 2026-05-07 21:28 | 41.36269 | -94.26120 | 38881 ft | 543 kts | 78° |
| 2026-05-07 21:28 | 41.37512 | -94.16205 | 38879 ft | 543 kts | 78° |
| 2026-05-07 21:29 | 41.38746 | -94.06288 | 38884 ft | 543 kts | 78° |
| 2026-05-07 21:29 | 41.39972 | -93.96367 | 38888 ft | 543 kts | 78° |
| 2026-05-07 21:30 | 41.41190 | -93.86433 | 38890 ft | 544 kts | 78° |
| 2026-05-07 21:30 | 41.42392 | -93.76559 | 38892 ft | 544 kts | 78° |
| 2026-05-07 21:31 | 41.43596 | -93.66608 | 38890 ft | 544 kts | 78° |
| 2026-05-07 21:31 | 41.44692 | -93.56624 | 38887 ft | 545 kts | 81° |
| 2026-05-07 21:32 | 41.45630 | -93.46608 | 38898 ft | 545 kts | 81° |
| 2026-05-07 21:32 | 41.46552 | -93.36576 | 38894 ft | 545 kts | 81° |
| 2026-05-07 21:33 | 41.47487 | -93.26606 | 38911 ft | 546 kts | 81° |
| 2026-05-07 21:33 | 41.48435 | -93.16565 | 38908 ft | 546 kts | 81° |
| 2026-05-07 21:34 | 41.49377 | -93.06521 | 38910 ft | 546 kts | 81° |
| 2026-05-07 21:34 | 41.50309 | -92.96463 | 38908 ft | 547 kts | 81° |
| 2026-05-07 21:35 | 41.51225 | -92.86458 | 38915 ft | 547 kts | 81° |
| 2026-05-07 21:35 | 41.52140 | -92.76373 | 38916 ft | 548 kts | 81° |
| 2026-05-07 21:36 | 41.53046 | -92.66279 | 38927 ft | 548 kts | 81° |
| 2026-05-07 21:36 | 41.53944 | -92.56173 | 38924 ft | 549 kts | 81° |
| 2026-05-07 21:37 | 41.54834 | -92.46058 | 38924 ft | 549 kts | 81° |
| 2026-05-07 21:37 | 41.55711 | -92.35999 | 38922 ft | 549 kts | 81° |
| 2026-05-07 21:38 | 41.56585 | -92.25860 | 38919 ft | 549 kts | 81° |
| 2026-05-07 21:38 | 41.57450 | -92.15718 | 38922 ft | 550 kts | 81° |
| 2026-05-07 21:39 | 41.58306 | -92.05572 | 38926 ft | 550 kts | 81° |
| 2026-05-07 21:39 | 41.59149 | -91.95482 | 38924 ft | 551 kts | 81° |
| 2026-05-07 21:40 | 41.59990 | -91.85301 | 38938 ft | 551 kts | 81° |
| 2026-05-07 21:40 | 41.60822 | -91.75119 | 38943 ft | 551 kts | 81° |
| 2026-05-07 21:41 | 41.61644 | -91.64934 | 38929 ft | 552 kts | 82° |
| 2026-05-07 21:41 | 41.62454 | -91.54801 | 38933 ft | 552 kts | 82° |
| 2026-05-07 21:42 | 41.63260 | -91.44591 | 38939 ft | 552 kts | 82° |
| 2026-05-07 21:42 | 41.64058 | -91.34374 | 38935 ft | 553 kts | 82° |
| 2026-05-07 21:43 | 41.64848 | -91.24145 | 38938 ft | 553 kts | 82° |
| 2026-05-07 21:43 | 41.65629 | -91.13901 | 38934 ft | 554 kts | 82° |
| 2026-05-07 21:44 | 41.66397 | -91.03720 | 38932 ft | 554 kts | 82° |
| 2026-05-07 21:44 | 41.67161 | -90.93449 | 38931 ft | 555 kts | 82° |
| 2026-05-07 21:45 | 41.67917 | -90.83177 | 38932 ft | 555 kts | 82° |
| 2026-05-07 21:45 | 41.68664 | -90.72896 | 38927 ft | 555 kts | 82° |
| 2026-05-07 21:46 | 41.69396 | -90.62681 | 38925 ft | 556 kts | 82° |
| 2026-05-07 21:46 | 41.70125 | -90.52393 | 38927 ft | 556 kts | 82° |
| 2026-05-07 21:47 | 41.70845 | -90.42101 | 38913 ft | 556 kts | 82° |
| 2026-05-07 21:47 | 41.71556 | -90.31808 | 38911 ft | 556 kts | 82° |
| 2026-05-07 21:48 | 41.72257 | -90.21505 | 38920 ft | 556 kts | 82° |
| 2026-05-07 21:48 | 41.72946 | -90.11264 | 38916 ft | 556 kts | 82° |
| 2026-05-07 21:49 | 41.73630 | -90.00952 | 38924 ft | 557 kts | 83° |
| 2026-05-07 21:49 | 41.74305 | -89.90622 | 38909 ft | 557 kts | 83° |
| 2026-05-07 21:50 | 41.74971 | -89.80301 | 38907 ft | 556 kts | 83° |
| 2026-05-07 21:50 | 41.75627 | -89.69985 | 38909 ft | 556 kts | 83° |
| 2026-05-07 21:51 | 41.76269 | -89.59731 | 38910 ft | 556 kts | 83° |
| 2026-05-07 21:51 | 41.76907 | -89.49414 | 38912 ft | 556 kts | 83° |
| 2026-05-07 21:52 | 41.77535 | -89.39096 | 38919 ft | 556 kts | 83° |
| 2026-05-07 21:52 | 41.78154 | -89.28769 | 38913 ft | 556 kts | 83° |
| 2026-05-07 21:53 | 41.78760 | -89.18505 | 38913 ft | 556 kts | 83° |
| 2026-05-07 21:53 | 41.79361 | -89.08168 | 38910 ft | 557 kts | 83° |
| 2026-05-07 21:54 | 41.79953 | -88.97825 | 38912 ft | 557 kts | 83° |
| 2026-05-07 21:54 | 41.80537 | -88.87468 | 38917 ft | 557 kts | 83° |
| 2026-05-07 21:55 | 41.81111 | -88.77106 | 38933 ft | 558 kts | 84° |
| 2026-05-07 21:55 | 41.81673 | -88.66803 | 38925 ft | 558 kts | 84° |
| 2026-05-07 21:56 | 41.82229 | -88.56428 | 38910 ft | 558 kts | 84° |
| 2026-05-07 21:56 | 41.82776 | -88.46048 | 38909 ft | 558 kts | 84° |
| 2026-05-07 21:57 | 41.83314 | -88.35666 | 38911 ft | 558 kts | 84° |
| 2026-05-07 21:57 | 41.83839 | -88.25350 | 38920 ft | 559 kts | 84° |
| 2026-05-07 21:58 | 41.84359 | -88.14944 | 38923 ft | 559 kts | 84° |
| 2026-05-07 21:58 | 41.84869 | -88.04549 | 38919 ft | 559 kts | 84° |
| 2026-05-07 21:59 | 41.85371 | -87.94139 | 38936 ft | 559 kts | 84° |
| 2026-05-07 21:59 | 41.85863 | -87.83726 | 38911 ft | 559 kts | 84° |
| 2026-05-07 22:00 | 41.86341 | -87.73396 | 38917 ft | 559 kts | 84° |
| 2026-05-07 22:00 | 41.86814 | -87.62992 | 38919 ft | 558 kts | 84° |
| 2026-05-07 22:01 | 41.87279 | -87.52591 | 38936 ft | 558 kts | 85° |
| 2026-05-07 22:01 | 41.87732 | -87.42195 | 38923 ft | 558 kts | 85° |
| 2026-05-07 22:02 | 41.88173 | -87.31866 | 38934 ft | 559 kts | 85° |
| 2026-05-07 22:02 | 41.88608 | -87.21454 | 38935 ft | 559 kts | 85° |
| 2026-05-07 22:03 | 41.89033 | -87.11041 | 38944 ft | 559 kts | 85° |
| 2026-05-07 22:03 | 41.89450 | -87.00621 | 38951 ft | 559 kts | 85° |
| 2026-05-07 22:04 | 41.89855 | -86.90265 | 38948 ft | 560 kts | 85° |
| 2026-05-07 22:04 | 41.90254 | -86.79828 | 38957 ft | 560 kts | 85° |
| 2026-05-07 22:05 | 41.90644 | -86.69367 | 38955 ft | 561 kts | 86° |
| 2026-05-07 22:05 | 41.91024 | -86.58903 | 38956 ft | 562 kts | 86° |
| 2026-05-07 22:06 | 41.91396 | -86.48404 | 38957 ft | 563 kts | 86° |
| 2026-05-07 22:06 | 41.91757 | -86.37962 | 38959 ft | 564 kts | 86° |
| 2026-05-07 22:07 | 41.92111 | -86.27432 | 38962 ft | 565 kts | 86° |
| 2026-05-07 22:07 | 41.92455 | -86.16907 | 38963 ft | 565 kts | 86° |
| 2026-05-07 22:08 | 41.92790 | -86.06360 | 38952 ft | 565 kts | 87° |
| 2026-05-07 22:08 | 41.93114 | -85.95884 | 38956 ft | 565 kts | 87° |
| 2026-05-07 22:09 | 41.93429 | -85.85343 | 38956 ft | 565 kts | 87° |
| 2026-05-07 22:09 | 41.93735 | -85.74811 | 38939 ft | 564 kts | 87° |
| 2026-05-07 22:10 | 41.94031 | -85.64288 | 38928 ft | 564 kts | 88° |
| 2026-05-07 22:10 | 41.94315 | -85.53852 | 38935 ft | 563 kts | 88° |
| 2026-05-07 22:11 | 41.94592 | -85.43346 | 38932 ft | 563 kts | 88° |
| 2026-05-07 22:11 | 41.94859 | -85.32842 | 38962 ft | 562 kts | 88° |
| 2026-05-07 22:12 | 41.95116 | -85.22341 | 38947 ft | 562 kts | 88° |
| 2026-05-07 22:12 | 41.95175 | -85.11910 | 38949 ft | 562 kts | 91° |
| 2026-05-07 22:13 | 41.95082 | -85.01403 | 38956 ft | 562 kts | 91° |
| 2026-05-07 22:13 | 41.94996 | -84.90902 | 38958 ft | 563 kts | 91° |
| 2026-05-07 22:14 | 41.94938 | -84.80384 | 38956 ft | 563 kts | 91° |
| 2026-05-07 22:14 | 41.94882 | -84.69869 | 38955 ft | 563 kts | 91° |
| 2026-05-07 22:15 | 41.94815 | -84.59344 | 38946 ft | 564 kts | 91° |
| 2026-05-07 22:15 | 41.94735 | -84.48884 | 38951 ft | 564 kts | 91° |
| 2026-05-07 22:16 | 41.94644 | -84.38344 | 38952 ft | 564 kts | 92° |
| 2026-05-07 22:16 | 41.94543 | -84.27809 | 38968 ft | 565 kts | 92° |
| 2026-05-07 22:17 | 41.94433 | -84.17247 | 38957 ft | 566 kts | 92° |
| 2026-05-07 22:17 | 41.94314 | -84.06677 | 38963 ft | 566 kts | 92° |
| 2026-05-07 22:18 | 41.94116 | -83.90871 | 38964 ft | 568 kts | 92° |
| 2026-05-07 22:19 | 41.93972 | -83.80256 | 38960 ft | 568 kts | 92° |
| 2026-05-07 22:19 | 41.93817 | -83.69638 | 38962 ft | 569 kts | 92° |
| 2026-05-07 22:20 | 41.93654 | -83.59069 | 38948 ft | 570 kts | 92° |
| 2026-05-07 22:20 | 41.93563 | -83.53356 | 38946 ft | 571 kts | 92° |
| 2026-05-07 22:21 | 41.93426 | -83.42696 | 38948 ft | 572 kts | 92° |
| 2026-05-07 22:21 | 41.93398 | -83.32007 | 38965 ft | 573 kts | 91° |
| 2026-05-07 22:22 | 41.93375 | -83.21301 | 38961 ft | 574 kts | 91° |
| 2026-05-07 22:22 | 41.93322 | -83.10647 | 38952 ft | 575 kts | 92° |
| 2026-05-07 22:23 | 41.93247 | -82.99919 | 38946 ft | 575 kts | 92° |
| 2026-05-07 22:23 | 41.93160 | -82.89175 | 38950 ft | 576 kts | 92° |
| 2026-05-07 22:24 | 41.93066 | -82.78414 | 38946 ft | 576 kts | 92° |
| 2026-05-07 22:24 | 41.92963 | -82.67652 | 38943 ft | 577 kts | 92° |
| 2026-05-07 22:25 | 41.92850 | -82.56954 | 38942 ft | 577 kts | 92° |
| 2026-05-07 22:25 | 41.92726 | -82.46169 | 38946 ft | 578 kts | 92° |
| 2026-05-07 22:26 | 41.92592 | -82.35383 | 38947 ft | 578 kts | 92° |
| 2026-05-07 22:26 | 41.92448 | -82.24588 | 38949 ft | 578 kts | 92° |
| 2026-05-07 22:27 | 41.92294 | -82.13860 | 38947 ft | 579 kts | 92° |
| 2026-05-07 22:27 | 41.92130 | -82.03054 | 38942 ft | 579 kts | 92° |
| 2026-05-07 22:28 | 41.91956 | -81.92242 | 38942 ft | 579 kts | 92° |
| 2026-05-07 22:28 | 41.91704 | -81.81431 | 38948 ft | 578 kts | 97° |
| 2026-05-07 22:29 | 41.90814 | -81.70724 | 38944 ft | 577 kts | 100° |
| 2026-05-07 22:29 | 41.89791 | -81.60113 | 38952 ft | 577 kts | 100° |
| 2026-05-07 22:30 | 41.88788 | -81.49418 | 38954 ft | 578 kts | 99° |
| 2026-05-07 22:30 | 41.87814 | -81.38715 | 38970 ft | 578 kts | 99° |
| 2026-05-07 22:31 | 41.86837 | -81.28008 | 38960 ft | 578 kts | 99° |
| 2026-05-07 22:31 | 41.85852 | -81.17372 | 38948 ft | 578 kts | 99° |
| 2026-05-07 22:32 | 41.84847 | -81.06665 | 38939 ft | 578 kts | 100° |
| 2026-05-07 22:32 | 41.83832 | -80.95966 | 38947 ft | 578 kts | 100° |
| 2026-05-07 22:33 | 41.82807 | -80.85271 | 38940 ft | 579 kts | 100° |
| 2026-05-07 22:33 | 41.81771 | -80.74561 | 38940 ft | 579 kts | 100° |
| 2026-05-07 22:34 | 41.80735 | -80.63940 | 38931 ft | 579 kts | 100° |
| 2026-05-07 22:34 | 41.79679 | -80.53239 | 38935 ft | 579 kts | 101° |
| 2026-05-07 22:35 | 41.78608 | -80.42545 | 38933 ft | 579 kts | 101° |
| 2026-05-07 22:35 | 41.77526 | -80.31846 | 38920 ft | 579 kts | 101° |
| 2026-05-07 22:36 | 41.76444 | -80.21226 | 38927 ft | 580 kts | 101° |
| 2026-05-07 22:36 | 41.75342 | -80.10513 | 38926 ft | 581 kts | 101° |
| 2026-05-07 22:37 | 41.74230 | -79.99802 | 38926 ft | 581 kts | 101° |
| 2026-05-07 22:37 | 41.73106 | -79.89078 | 38935 ft | 582 kts | 101° |
| 2026-05-07 22:38 | 41.71981 | -79.78438 | 38939 ft | 582 kts | 101° |
| 2026-05-07 22:38 | 41.70837 | -79.67706 | 38950 ft | 582 kts | 101° |
| 2026-05-07 22:39 | 41.69682 | -79.56989 | 38942 ft | 583 kts | 101° |
| 2026-05-07 22:39 | 41.68516 | -79.46255 | 38941 ft | 583 kts | 101° |
| 2026-05-07 22:40 | 41.67350 | -79.35607 | 38930 ft | 582 kts | 102° |
| 2026-05-07 22:40 | 41.66167 | -79.24891 | 38939 ft | 583 kts | 101° |
| 2026-05-07 22:41 | 41.64973 | -79.14179 | 38926 ft | 583 kts | 102° |
| 2026-05-07 22:41 | 41.63773 | -79.03467 | 38922 ft | 583 kts | 102° |
| 2026-05-07 22:42 | 41.62571 | -78.92816 | 38907 ft | 583 kts | 102° |
| 2026-05-07 22:42 | 41.61352 | -78.82092 | 38899 ft | 584 kts | 102° |
| 2026-05-07 22:43 | 41.60123 | -78.71377 | 38886 ft | 584 kts | 102° |
| 2026-05-07 22:43 | 41.58883 | -78.60669 | 38898 ft | 583 kts | 102° |
| 2026-05-07 22:44 | 41.57642 | -78.50033 | 38888 ft | 583 kts | 102° |
| 2026-05-07 22:44 | 41.56383 | -78.39337 | 38902 ft | 583 kts | 102° |
| 2026-05-07 22:45 | 41.55116 | -78.28659 | 38900 ft | 583 kts | 102° |
| 2026-05-07 22:45 | 41.53837 | -78.17967 | 38899 ft | 583 kts | 102° |
| 2026-05-07 22:46 | 41.52550 | -78.07293 | 38882 ft | 583 kts | 102° |
| 2026-05-07 22:46 | 41.51264 | -77.96701 | 38890 ft | 582 kts | 102° |
| 2026-05-07 22:47 | 41.49830 | -77.86080 | 38882 ft | 582 kts | 104° |
| 2026-05-07 22:47 | 41.48281 | -77.75485 | 38881 ft | 582 kts | 104° |
| 2026-05-07 22:48 | 41.46736 | -77.64884 | 38872 ft | 583 kts | 104° |
| 2026-05-07 22:48 | 41.45217 | -77.54347 | 38863 ft | 583 kts | 104° |
| 2026-05-07 22:49 | 41.43687 | -77.43753 | 38851 ft | 582 kts | 104° |
| 2026-05-07 22:49 | 41.42144 | -77.33163 | 38863 ft | 583 kts | 104° |
| 2026-05-07 22:50 | 41.40591 | -77.22566 | 38848 ft | 583 kts | 104° |
| 2026-05-07 22:50 | 41.39031 | -77.12026 | 38842 ft | 584 kts | 104° |
| 2026-05-07 22:51 | 41.37450 | -77.01402 | 38836 ft | 586 kts | 104° |
| 2026-05-07 22:51 | 41.35854 | -76.90746 | 38840 ft | 588 kts | 104° |
| 2026-05-07 22:52 | 41.34247 | -76.80068 | 38758 ft | 588 kts | 104° |
| 2026-05-07 22:52 | 41.33352 | -76.74774 | 38427 ft | 586 kts | 110° |
| 2026-05-07 22:52 | 41.32149 | -76.69677 | 37983 ft | 585 kts | 115° |
| 2026-05-07 22:52 | 41.30726 | -76.64607 | 37557 ft | 585 kts | 117° |
| 2026-05-07 22:53 | 41.29236 | -76.59573 | 37179 ft | 585 kts | 117° |
| 2026-05-07 22:53 | 41.27761 | -76.54527 | 36840 ft | 585 kts | 116° |
| 2026-05-07 22:53 | 41.26333 | -76.49457 | 36480 ft | 587 kts | 115° |
| 2026-05-07 22:53 | 41.24942 | -76.44346 | 36101 ft | 588 kts | 115° |
| 2026-05-07 22:54 | 41.23572 | -76.39222 | 35723 ft | 589 kts | 115° |
| 2026-05-07 22:54 | 41.22201 | -76.34084 | 35354 ft | 590 kts | 115° |
| 2026-05-07 22:54 | 41.20825 | -76.28958 | 34976 ft | 591 kts | 115° |
| 2026-05-07 22:54 | 41.19455 | -76.23896 | 34640 ft | 590 kts | 115° |
| 2026-05-07 22:55 | 41.18057 | -76.18762 | 34255 ft | 591 kts | 115° |
| 2026-05-07 22:55 | 41.16657 | -76.13637 | 33894 ft | 591 kts | 115° |
| 2026-05-07 22:55 | 41.15261 | -76.08523 | 33644 ft | 588 kts | 115° |
| 2026-05-07 22:55 | 41.13871 | -76.03436 | 33442 ft | 584 kts | 115° |
| 2026-05-07 22:56 | 41.12490 | -75.98401 | 33230 ft | 580 kts | 115° |
| 2026-05-07 22:56 | 41.11107 | -75.93374 | 33001 ft | 578 kts | 115° |
| 2026-05-07 22:56 | 41.09732 | -75.88387 | 32753 ft | 575 kts | 116° |
| 2026-05-07 22:56 | 41.08380 | -75.83494 | 32551 ft | 572 kts | 116° |
| 2026-05-07 22:57 | 41.07013 | -75.78550 | 32304 ft | 570 kts | 116° |
| 2026-05-07 22:57 | 41.05651 | -75.73638 | 32076 ft | 568 kts | 116° |
| 2026-05-07 22:57 | 41.04301 | -75.68764 | 31774 ft | 554 kts | 116° |
| 2026-05-07 22:57 | 41.02978 | -75.63998 | 31190 ft | 549 kts | 116° |
| 2026-05-07 22:58 | 41.01663 | -75.59278 | 30524 ft | 544 kts | 116° |
| 2026-05-07 22:58 | 41.00354 | -75.54599 | 29812 ft | 540 kts | 116° |
| 2026-05-07 22:58 | 40.99054 | -75.49950 | 29036 ft | 536 kts | 116° |
| 2026-05-07 22:58 | 40.97765 | -75.45345 | 28331 ft | 531 kts | 116° |
| 2026-05-07 22:59 | 40.96508 | -75.40857 | 27676 ft | 525 kts | 116° |
| 2026-05-07 22:59 | 40.95245 | -75.36360 | 27038 ft | 519 kts | 116° |
| 2026-05-07 22:59 | 40.93994 | -75.31913 | 26413 ft | 514 kts | 116° |
| 2026-05-07 22:59 | 40.92750 | -75.27502 | 25787 ft | 509 kts | 116° |
| 2026-05-07 23:00 | 40.91516 | -75.23133 | 25166 ft | 505 kts | 117° |
| 2026-05-07 23:00 | 40.90289 | -75.18800 | 24545 ft | 501 kts | 116° |
| 2026-05-07 23:00 | 40.89074 | -75.14510 | 23960 ft | 497 kts | 116° |
| 2026-05-07 23:00 | 40.87883 | -75.10310 | 23413 ft | 492 kts | 116° |
| 2026-05-07 23:01 | 40.86693 | -75.06102 | 22766 ft | 487 kts | 116° |
| 2026-05-07 23:01 | 40.85515 | -75.01929 | 22089 ft | 482 kts | 116° |
| 2026-05-07 23:01 | 40.84355 | -74.97817 | 21621 ft | 473 kts | 116° |
| 2026-05-07 23:01 | 40.83215 | -74.93785 | 21149 ft | 465 kts | 116° |
| 2026-05-07 23:02 | 40.82036 | -74.89866 | 20697 ft | 453 kts | 120° |
| 2026-05-07 23:02 | 40.80569 | -74.86243 | 20169 ft | 442 kts | 128° |
| 2026-05-07 23:02 | 40.78879 | -74.82906 | 19707 ft | 432 kts | 133° |
| 2026-05-07 23:02 | 40.77069 | -74.79853 | 19585 ft | 412 kts | 139° |
| 2026-05-07 23:03 | 40.75164 | -74.77149 | 19524 ft | 395 kts | 142° |
| 2026-05-07 23:03 | 40.73330 | -74.74598 | 19440 ft | 381 kts | 142° |
| 2026-05-07 23:03 | 40.71534 | -74.72103 | 19340 ft | 369 kts | 142° |
| 2026-05-07 23:03 | 40.69790 | -74.69681 | 19182 ft | 360 kts | 142° |
| 2026-05-07 23:04 | 40.68085 | -74.67313 | 18964 ft | 353 kts | 142° |
| 2026-05-07 23:04 | 40.66405 | -74.64979 | 18665 ft | 350 kts | 142° |
| 2026-05-07 23:04 | 40.64738 | -74.62663 | 18330 ft | 346 kts | 141° |
| 2026-05-07 23:04 | 40.63094 | -74.60374 | 17914 ft | 342 kts | 141° |
| 2026-05-07 23:05 | 40.61460 | -74.58101 | 17438 ft | 341 kts | 141° |
| 2026-05-07 23:05 | 40.59837 | -74.55842 | 16961 ft | 338 kts | 141° |
| 2026-05-07 23:05 | 40.58226 | -74.53601 | 16477 ft | 335 kts | 142° |
| 2026-05-07 23:05 | 40.56652 | -74.51412 | 16030 ft | 333 kts | 142° |
| 2026-05-07 23:06 | 40.55070 | -74.49212 | 15584 ft | 330 kts | 142° |
| 2026-05-07 23:06 | 40.53496 | -74.47027 | 15113 ft | 328 kts | 142° |
| 2026-05-07 23:06 | 40.51923 | -74.44848 | 14396 ft | 329 kts | 142° |
| 2026-05-07 23:06 | 40.50335 | -74.42651 | 13257 ft | 333 kts | 142° |
| 2026-05-07 23:07 | 40.48872 | -74.40244 | 12011 ft | 339 kts | 136° |
| 2026-05-07 23:07 | 40.47195 | -74.38227 | 10966 ft | 317 kts | 160° |
| 2026-05-07 23:07 | 40.45232 | -74.37387 | 10283 ft | 281 kts | 185° |
| 2026-05-07 23:07 | 40.43395 | -74.37649 | 9475 ft | 259 kts | 200° |
| 2026-05-07 23:08 | 40.41584 | -74.37726 | 8434 ft | 276 kts | 175° |
| 2026-05-07 23:08 | 40.39803 | -74.36648 | 7455 ft | 292 kts | 147° |
| 2026-05-07 23:08 | 40.38495 | -74.34561 | 6500 ft | 303 kts | 119° |
| 2026-05-07 23:08 | 40.37966 | -74.31892 | 5518 ft | 306 kts | 92° |
| 2026-05-07 23:09 | 40.38338 | -74.29182 | 4607 ft | 302 kts | 64° |
| 2026-05-07 23:09 | 40.39531 | -74.27026 | 3906 ft | 285 kts | 36° |
| 2026-05-07 23:09 | 40.41219 | -74.25869 | 3277 ft | 265 kts | 6° |
| 2026-05-07 23:09 | 40.42993 | -74.25870 | 3049 ft | 252 kts | 343° |
| 2026-05-07 23:10 | 40.44615 | -74.26590 | 2874 ft | 249 kts | 332° |
| 2026-05-07 23:10 | 40.46153 | -74.27494 | 2914 ft | 235 kts | 330° |
| 2026-05-07 23:10 | 40.47611 | -74.28357 | 2807 ft | 226 kts | 329° |
| 2026-05-07 23:10 | 40.49047 | -74.29145 | 2804 ft | 224 kts | 340° |
| 2026-05-07 23:11 | 40.50628 | -74.29072 | 2815 ft | 237 kts | 14° |
| 2026-05-07 23:11 | 40.52057 | -74.27939 | 2810 ft | 243 kts | 32° |
| 2026-05-07 23:11 | 40.53469 | -74.26697 | 2810 ft | 241 kts | 28° |
| 2026-05-07 23:11 | 40.54871 | -74.25617 | 2797 ft | 225 kts | 22° |
| 2026-05-07 23:12 | 40.56245 | -74.24723 | 2562 ft | 216 kts | 20° |
| 2026-05-07 23:12 | 40.57535 | -74.23913 | 2288 ft | 201 kts | 20° |
| 2026-05-07 23:12 | 40.58754 | -74.23142 | 2022 ft | 188 kts | 20° |
| 2026-05-07 23:12 | 40.59897 | -74.22416 | 1762 ft | 176 kts | 20° |
| 2026-05-07 23:13 | 40.60956 | -74.21745 | 1542 ft | 161 kts | 21° |
| 2026-05-07 23:13 | 40.61949 | -74.21117 | 1343 ft | 155 kts | 21° |
| 2026-05-07 23:13 | 40.62922 | -74.20500 | 1157 ft | 155 kts | 22° |
| 2026-05-07 23:13 | 40.63889 | -74.19885 | 948 ft | 154 kts | 24° |
| 2026-05-07 23:14 | 40.64833 | -74.19266 | 685 ft | 147 kts | 23° |
| 2026-05-07 23:14 | 40.65696 | -74.18717 | 505 ft | 131 kts | 21° |
| 2026-05-07 23:14 | 40.66497 | -74.18219 | 386 ft | 131 kts | 22° |
| 2026-05-07 23:14 | 40.67367 | -74.17664 | 154 ft | 141 kts | 24° |
| 2026-05-07 23:15 | 40.68203 | -74.17143 | 30 ft | 126 kts | 26° |
| 2026-05-07 23:15 | 40.68896 | -74.16704 | 28 ft | 94 kts | 25° |
| 2026-05-07 23:15 | 40.69374 | -74.16400 | 30 ft | 58 kts | 26° |
| 2026-05-07 23:15 | 40.69630 | -74.16285 | 29 ft | 23 kts | 352° |
| 2026-05-07 23:16 | 40.69760 | -74.16306 | 24 ft | 18 kts | 355° |
| 2026-05-07 23:16 | 40.69863 | -74.16387 | 22 ft | 18 kts | 301° |
| 2026-05-07 23:16 | 40.69912 | -74.16535 | 19 ft | 18 kts | 284° |
| 2026-05-07 23:16 | 40.69858 | -74.16632 | 20 ft | 14 kts | 210° |
| 2026-05-07 23:17 | 40.69775 | -74.16694 | 20 ft | 14 kts | 210° |
| 2026-05-07 23:17 | 40.69691 | -74.16750 | 26 ft | 14 kts | 192° |
| 2026-05-07 23:17 | 40.69605 | -74.16793 | 27 ft | 12 kts | 208° |
| 2026-05-07 23:17 | 40.69531 | -74.16845 | 28 ft | 12 kts | 208° |
| 2026-05-07 23:18 | 40.69456 | -74.16894 | 28 ft | 12 kts | 196° |
| 2026-05-07 23:18 | 40.69377 | -74.16934 | 29 ft | 12 kts | 202° |
| 2026-05-07 23:18 | 40.69305 | -74.16984 | 25 ft | 6 kts | 208° |
| 2026-05-07 23:18 | 40.69267 | -74.17009 | 27 ft | 6 kts | 206° |
| 2026-05-07 23:19 | 40.69229 | -74.17034 | 24 ft | 6 kts | 206° |
| 2026-05-07 23:19 | 40.69216 | -74.17081 | 25 ft | 6 kts | 289° |
| 2026-05-07 23:19 | 40.69233 | -74.17134 | 24 ft | 6 kts | 293° |
| 2026-05-07 23:19 | 40.69251 | -74.17187 | 25 ft | 6 kts | 293° |
| 2026-05-07 23:20 | 40.69266 | -74.17242 | 24 ft | 6 kts | 270° |
| 2026-05-07 23:20 | 40.69256 | -74.17299 | 24 ft | 7 kts | 256° |
| 2026-05-07 23:20 | 40.69247 | -74.17356 | 20 ft | 5 kts | 258° |
| 2026-05-07 23:20 | 40.69246 | -74.17359 | 20 ft | 0 kts | 258° |